createdAt,value
2023-04-19T00:00:53.638Z,74.90
2023-04-19T00:07:03.470Z,75.10
2023-04-19T00:09:34.612Z,75.10
2023-04-19T00:12:03.352Z,75.00
2023-04-19T00:14:33.700Z,75.10
2023-04-19T00:17:08.203Z,75.00
2023-04-19T00:22:41.620Z,75.10
2023-04-19T00:25:14.845Z,75.10
2023-04-19T00:27:57.192Z,75.10
2023-04-19T00:30:29.015Z,75.10
2023-04-19T00:33:02.566Z,75.10
2023-04-19T00:35:32.848Z,75.20
2023-04-19T00:38:12.832Z,75.20
2023-04-19T00:40:57.287Z,75.10
2023-04-19T00:43:54.535Z,75.20
2023-04-19T00:46:39.280Z,75.20
2023-04-19T00:52:00.595Z,75.10
2023-04-19T00:54:31.463Z,75.20
2023-04-19T00:57:00.157Z,75.20
2023-04-19T01:05:14.092Z,75.10
2023-04-19T01:07:53.006Z,75.10
2023-04-19T01:10:22.806Z,75.30
2023-04-19T01:13:05.863Z,75.30
2023-04-19T01:15:50.675Z,75.30
2023-04-19T01:27:14.093Z,75.40
2023-04-19T01:29:51.474Z,75.50
2023-04-19T01:32:28.769Z,75.50
2023-04-19T01:35:22.383Z,75.50
2023-04-19T01:37:55.661Z,75.50
2023-04-19T01:40:46.312Z,75.70
2023-04-19T01:43:18.584Z,75.70
2023-04-19T01:45:58.462Z,75.60
2023-04-19T01:48:32.567Z,75.70
2023-04-19T01:51:24.777Z,75.80
2023-04-19T01:54:11.624Z,75.80
2023-04-19T01:56:57.704Z,75.80
2023-04-19T01:59:26.922Z,75.80
2023-04-19T02:05:28.630Z,75.90
2023-04-19T02:08:04.212Z,76.00
2023-04-19T02:10:49.212Z,76.10
2023-04-19T02:16:49.101Z,76.10
2023-04-19T02:22:46.089Z,76.10
2023-04-19T02:25:14.216Z,76.10
2023-04-19T02:27:42.687Z,76.30
2023-04-19T02:30:11.769Z,76.30
2023-04-19T02:32:41.726Z,76.30
2023-04-19T02:35:12.171Z,76.30
2023-04-19T02:37:41.645Z,76.40
2023-04-19T02:40:11.222Z,76.50
2023-04-19T02:42:41.473Z,76.40
2023-04-19T02:45:11.022Z,76.50
2023-04-19T02:47:39.720Z,76.70
2023-04-19T02:50:12.106Z,76.90
2023-04-19T02:52:47.040Z,77.00
2023-04-19T02:55:15.788Z,77.10
2023-04-19T02:57:47.997Z,77.20
2023-04-19T03:00:18.003Z,77.20
2023-04-19T03:02:57.459Z,77.30
2023-04-19T03:05:28.794Z,77.40
2023-04-19T03:07:57.605Z,77.40
2023-04-19T03:10:28.057Z,77.40
2023-04-19T03:12:56.939Z,77.40
2023-04-19T03:15:29.601Z,77.50
2023-04-19T03:17:58.056Z,77.50
2023-04-19T03:20:32.440Z,77.60
2023-04-19T03:23:00.672Z,77.70
2023-04-19T03:25:29.696Z,77.60
2023-04-19T03:28:10.144Z,77.80
2023-04-19T03:30:57.056Z,77.80
2023-04-19T03:33:25.462Z,78.00
2023-04-19T03:35:57.289Z,77.90
2023-04-19T03:38:26.745Z,77.90
2023-04-19T03:40:57.831Z,77.90
2023-04-19T03:43:31.578Z,78.00
2023-04-19T03:46:00.947Z,78.00
2023-04-19T03:48:29.664Z,77.90
2023-04-19T03:50:59.652Z,77.90
2023-04-19T03:53:29.681Z,78.10
2023-04-19T03:55:59.116Z,78.20
2023-04-19T03:58:27.785Z,78.30
2023-04-19T04:01:06.724Z,78.30
2023-04-19T04:03:47.671Z,78.30
2023-04-19T04:06:19.570Z,78.50
2023-04-19T04:08:49.454Z,78.50
2023-04-19T04:11:17.945Z,78.60
2023-04-19T04:13:50.689Z,78.60
2023-04-19T04:16:27.389Z,78.70
2023-04-19T04:18:56.829Z,78.90
2023-04-19T04:21:31.057Z,78.90
2023-04-19T04:24:06.824Z,78.90
2023-04-19T04:26:43.371Z,79.00
2023-04-19T04:29:34.260Z,79.00
2023-04-19T04:32:08.713Z,79.10
2023-04-19T04:34:40.801Z,79.10
2023-04-19T04:37:31.475Z,79.10
2023-04-19T04:40:01.012Z,79.10
2023-04-19T04:42:31.512Z,79.20
2023-04-19T04:45:01.620Z,79.10
2023-04-19T04:47:35.216Z,78.90
2023-04-19T04:50:08.130Z,78.90
2023-04-19T04:52:38.293Z,79.00
2023-04-19T04:55:18.151Z,79.00
2023-04-19T04:57:49.759Z,79.00
2023-04-19T05:00:28.522Z,79.10
2023-04-19T05:03:05.947Z,79.20
2023-04-19T05:05:40.053Z,79.20
2023-04-19T05:08:11.419Z,79.20
2023-04-19T05:10:41.000Z,79.10
2023-04-19T05:13:09.856Z,79.20
2023-04-19T05:15:41.387Z,79.10
2023-04-19T05:18:11.215Z,79.00
2023-04-19T05:20:40.001Z,78.90
2023-04-19T05:23:20.919Z,78.70
2023-04-19T05:25:51.289Z,78.70
2023-04-19T05:28:23.041Z,78.50
2023-04-19T05:31:03.967Z,78.40
2023-04-19T05:33:36.831Z,78.30
2023-04-19T05:36:06.350Z,78.20
2023-04-19T05:38:35.981Z,78.20
2023-04-19T05:41:04.924Z,78.20
2023-04-19T05:43:37.109Z,78.10
2023-04-19T05:46:06.668Z,78.10
2023-04-19T05:48:36.118Z,77.80
2023-04-19T05:51:23.417Z,77.80
2023-04-19T05:54:13.003Z,77.70
2023-04-19T05:56:47.090Z,77.80
2023-04-19T05:59:17.334Z,77.60
2023-04-19T06:01:48.039Z,77.40
2023-04-19T06:04:18.231Z,76.70
2023-04-19T06:06:47.272Z,75.20
2023-04-19T06:09:19.964Z,74.90
2023-04-19T06:11:51.816Z,74.80
2023-04-19T06:14:20.470Z,74.70
2023-04-19T06:16:49.079Z,74.50
2023-04-19T06:19:22.449Z,74.50
2023-04-19T06:21:52.439Z,74.50
2023-04-19T06:24:23.479Z,74.20
2023-04-19T06:26:54.812Z,74.30
2023-04-19T06:29:24.573Z,74.40
2023-04-19T06:31:53.127Z,74.20
2023-04-19T06:34:21.345Z,74.20
2023-04-19T06:36:50.040Z,74.00
2023-04-19T06:39:18.810Z,73.80
2023-04-19T06:41:49.136Z,73.70
2023-04-19T06:44:18.953Z,73.60
2023-04-19T06:46:47.451Z,73.80
2023-04-19T06:49:15.841Z,73.90
2023-04-19T06:51:44.794Z,74.00
2023-04-19T06:54:13.806Z,74.30
2023-04-19T06:56:46.932Z,73.90
2023-04-19T06:59:21.065Z,73.80
2023-04-19T07:01:50.137Z,73.90
2023-04-19T07:04:19.018Z,73.70
2023-04-19T07:06:50.050Z,73.80
2023-04-19T07:09:20.007Z,73.60
2023-04-19T07:11:51.488Z,73.60
2023-04-19T07:14:22.025Z,73.40
2023-04-19T07:16:50.947Z,73.40
2023-04-19T07:19:22.446Z,73.00
2023-04-19T07:22:01.292Z,72.60
2023-04-19T07:24:31.948Z,72.80
2023-04-19T07:27:00.861Z,72.20
2023-04-19T07:29:32.536Z,72.30
2023-04-19T07:32:02.928Z,71.90
2023-04-19T07:34:31.795Z,71.80
2023-04-19T07:37:01.782Z,71.50
2023-04-19T07:39:33.337Z,71.90
2023-04-19T07:42:02.362Z,71.60
2023-04-19T07:44:34.910Z,71.60
2023-04-19T07:47:03.504Z,71.90
2023-04-19T07:49:34.486Z,71.70
2023-04-19T07:52:04.367Z,71.40
2023-04-19T07:54:45.554Z,71.20
2023-04-19T07:57:22.926Z,71.00
2023-04-19T07:59:57.990Z,71.20
2023-04-19T08:02:30.287Z,71.20
2023-04-19T08:04:59.693Z,71.10
2023-04-19T08:07:30.087Z,71.20
2023-04-19T08:09:58.411Z,70.70
2023-04-19T08:12:36.465Z,69.90
2023-04-19T08:15:29.174Z,68.80
2023-04-19T08:18:02.544Z,68.10
2023-04-19T08:20:32.221Z,68.00
2023-04-19T08:23:14.031Z,67.70
2023-04-19T08:25:49.958Z,66.70
2023-04-19T08:28:19.494Z,65.40
2023-04-19T08:30:52.311Z,64.50
2023-04-19T08:33:22.432Z,64.70
2023-04-19T08:35:51.204Z,64.00
2023-04-19T08:38:20.453Z,64.10
2023-04-19T08:40:52.886Z,63.30
2023-04-19T08:43:22.725Z,63.60
2023-04-19T08:45:55.772Z,63.60
2023-04-19T08:48:25.140Z,64.10
2023-04-19T08:51:04.100Z,63.50
2023-04-19T08:53:35.547Z,63.20
2023-04-19T08:56:15.196Z,63.00
2023-04-19T09:01:34.649Z,63.50
2023-04-19T09:04:26.529Z,62.90
2023-04-19T09:06:54.367Z,62.70
2023-04-19T09:11:55.038Z,62.10
2023-04-19T09:14:24.841Z,59.30
2023-04-19T09:16:55.041Z,58.50
2023-04-19T09:19:25.453Z,57.60
2023-04-19T09:21:55.064Z,58.10
2023-04-19T09:27:13.265Z,53.10
2023-04-19T09:29:44.509Z,48.40
2023-04-19T09:32:16.677Z,47.10
2023-04-19T09:34:53.280Z,46.80
2023-04-19T09:37:50.821Z,45.60
2023-04-19T09:40:27.306Z,44.80
2023-04-19T09:45:30.511Z,46.70
2023-04-19T09:48:08.260Z,47.30
2023-04-19T09:50:46.673Z,47.20
2023-04-19T09:53:20.278Z,48.60
2023-04-19T09:56:00.404Z,50.10
2023-04-19T10:01:17.982Z,50.70
2023-04-19T10:03:53.738Z,50.90
2023-04-19T10:08:58.885Z,50.70
2023-04-19T10:14:15.184Z,50.60
2023-04-19T10:16:55.507Z,50.60
2023-04-19T10:19:27.720Z,50.80
2023-04-19T10:24:44.391Z,48.20
2023-04-19T10:30:01.344Z,45.40
2023-04-19T10:32:31.389Z,45.10
2023-04-19T10:35:06.204Z,45.60
2023-04-19T10:44:11.306Z,44.60
2023-04-19T10:46:43.786Z,44.00
2023-04-19T10:49:14.133Z,42.50
2023-04-19T10:54:42.685Z,40.70
2023-04-19T10:57:19.390Z,38.30
2023-04-19T11:00:08.791Z,38.80
2023-04-19T11:02:40.725Z,39.40
2023-04-19T11:05:10.564Z,39.80
2023-04-19T11:07:42.674Z,39.90
2023-04-19T11:10:13.584Z,40.60
2023-04-19T11:12:48.004Z,41.30
2023-04-19T11:15:17.836Z,41.50
2023-04-19T11:17:46.264Z,40.60
2023-04-19T11:20:15.213Z,40.20
2023-04-19T11:22:46.322Z,39.80
2023-04-19T11:25:19.585Z,39.10
2023-04-19T11:27:52.733Z,38.30
2023-04-19T11:30:24.152Z,39.00
2023-04-19T11:32:55.062Z,39.70
2023-04-19T11:35:24.913Z,39.10
2023-04-19T11:40:38.828Z,36.80
2023-04-19T11:43:08.285Z,35.90
2023-04-19T11:45:39.457Z,36.20
2023-04-19T11:48:30.487Z,37.00
2023-04-19T11:54:07.015Z,37.10
2023-04-19T11:56:40.822Z,36.10
2023-04-19T11:59:30.959Z,35.00
2023-04-19T12:02:08.738Z,35.90
2023-04-19T12:04:58.696Z,35.30
2023-04-19T12:07:41.193Z,35.70
2023-04-19T12:19:18.993Z,33.70
2023-04-19T12:21:48.472Z,33.40
2023-04-19T12:24:17.547Z,31.50
2023-04-19T12:26:55.825Z,30.90
2023-04-19T12:29:27.289Z,30.20
2023-04-19T12:31:57.175Z,31.20
2023-04-19T12:34:50.172Z,31.10
2023-04-19T12:51:45.679Z,28.70
2023-04-19T12:54:19.271Z,27.20
2023-04-19T12:56:47.770Z,27.50
2023-04-19T13:02:12.975Z,28.10
2023-04-19T13:04:41.909Z,27.30
2023-04-19T13:07:10.718Z,27.80
2023-04-19T13:10:04.807Z,27.60
2023-04-19T13:13:01.897Z,28.30
2023-04-19T13:15:31.873Z,29.10
2023-04-19T13:18:00.197Z,29.70
2023-04-19T13:20:29.217Z,29.80
2023-04-19T13:22:57.917Z,30.00
2023-04-19T13:25:26.982Z,29.70
2023-04-19T13:27:55.733Z,30.10
2023-04-19T13:34:09.882Z,30.50
2023-04-19T13:36:41.288Z,29.10
2023-04-19T13:39:11.736Z,29.20
2023-04-19T13:41:40.065Z,28.80
2023-04-19T13:44:08.770Z,29.10
2023-04-19T13:46:37.784Z,29.30
2023-04-19T13:49:06.769Z,29.20
2023-04-19T13:51:48.902Z,28.80
2023-04-19T13:54:21.332Z,28.30
2023-04-19T13:56:51.924Z,28.60
2023-04-19T13:59:21.568Z,28.80
2023-04-19T14:01:50.280Z,27.10
2023-04-19T14:04:22.599Z,30.50
2023-04-19T14:06:55.327Z,30.90
2023-04-19T14:09:23.951Z,31.00
2023-04-19T14:11:55.592Z,30.70
2023-04-19T14:14:26.012Z,30.80
2023-04-19T14:16:54.454Z,30.60
2023-04-19T14:19:22.844Z,29.80
2023-04-19T14:21:53.296Z,29.50
2023-04-19T14:24:21.776Z,29.40
2023-04-19T14:27:03.515Z,29.90
2023-04-19T14:29:36.693Z,29.30
2023-04-19T14:32:30.925Z,30.50
2023-04-19T14:34:59.621Z,30.30
2023-04-19T14:37:34.301Z,29.70
2023-04-19T14:40:04.000Z,30.90
2023-04-19T14:42:32.589Z,29.50
2023-04-19T14:45:02.479Z,29.40
2023-04-19T14:47:31.690Z,29.50
2023-04-19T14:50:01.037Z,29.90
2023-04-19T14:52:30.597Z,29.60
2023-04-19T14:55:11.456Z,29.30
2023-04-19T14:57:40.658Z,30.60
2023-04-19T15:00:26.575Z,29.60
2023-04-19T15:05:56.230Z,31.20
2023-04-19T15:08:30.771Z,30.90
2023-04-19T15:11:17.369Z,31.30
2023-04-19T15:14:11.428Z,32.70
2023-04-19T15:16:42.140Z,32.20
2023-04-19T15:19:11.153Z,33.30
2023-04-19T15:21:50.508Z,33.60
2023-04-19T15:24:20.165Z,33.00
2023-04-19T15:26:48.884Z,33.20
2023-04-19T15:29:19.810Z,33.50
2023-04-19T15:31:50.320Z,34.00
2023-04-19T15:34:20.463Z,33.60
2023-04-19T15:36:51.251Z,33.50
2023-04-19T15:39:22.290Z,33.50
2023-04-19T15:41:50.865Z,32.90
2023-04-19T15:44:20.211Z,33.80
2023-04-19T15:47:05.006Z,34.40
2023-04-19T15:49:51.098Z,34.90
2023-04-19T15:58:08.006Z,35.40
2023-04-19T16:00:38.750Z,35.70
2023-04-19T16:03:14.562Z,35.80
2023-04-19T16:05:43.679Z,35.60
2023-04-19T16:08:23.356Z,36.20
2023-04-19T16:10:54.610Z,36.10
2023-04-19T16:13:23.364Z,37.00
2023-04-19T16:15:53.816Z,35.90
2023-04-19T16:18:24.146Z,37.40
2023-04-19T16:20:55.060Z,36.50
2023-04-19T16:23:26.860Z,38.30
2023-04-19T16:26:00.170Z,37.40
2023-04-19T16:28:42.424Z,38.40
2023-04-19T16:31:20.929Z,38.30
2023-04-19T16:33:51.557Z,38.90
2023-04-19T16:36:34.905Z,38.90
2023-04-19T16:42:45.182Z,39.10
2023-04-19T16:45:27.913Z,38.90
2023-04-19T16:53:56.105Z,39.30
2023-04-19T16:56:28.375Z,39.70
2023-04-19T16:58:57.987Z,39.90
2023-04-19T17:01:28.056Z,39.60
2023-04-19T17:03:59.558Z,40.70
2023-04-19T17:06:29.024Z,41.20
2023-04-19T17:09:01.661Z,42.10
2023-04-19T17:11:32.825Z,43.50
2023-04-19T17:14:02.799Z,43.30
2023-04-19T17:16:35.637Z,42.10
2023-04-19T17:19:04.374Z,42.50
2023-04-19T17:21:34.025Z,42.90
2023-04-19T17:26:59.349Z,43.70
2023-04-19T17:41:42.072Z,44.80
2023-04-19T17:44:10.591Z,44.70
2023-04-19T17:49:29.669Z,46.10
2023-04-19T17:52:07.090Z,45.80
2023-04-19T17:54:37.434Z,45.90
2023-04-19T17:57:07.616Z,46.40
2023-04-19T17:59:36.080Z,46.40
2023-04-19T18:02:10.755Z,47.10
2023-04-19T18:04:50.575Z,47.60
2023-04-19T18:08:04.747Z,48.00
2023-04-19T18:16:57.906Z,49.30
2023-04-19T18:19:43.897Z,50.00
2023-04-19T18:22:16.437Z,49.80
2023-04-19T18:27:32.466Z,50.40
2023-04-19T18:30:15.919Z,50.60
2023-04-19T18:32:44.893Z,50.40
2023-04-19T18:35:14.295Z,49.40
2023-04-19T18:37:43.312Z,49.60
2023-04-19T18:40:17.721Z,50.10
2023-04-19T18:42:47.420Z,50.50
2023-04-19T18:45:17.852Z,50.50
2023-04-19T18:47:47.643Z,50.20
2023-04-19T18:50:19.397Z,50.00
2023-04-19T18:52:49.200Z,50.70
2023-04-19T18:55:18.214Z,51.20
2023-04-19T18:57:47.321Z,51.40
2023-04-19T19:00:35.164Z,52.20
2023-04-19T19:03:04.369Z,52.40
2023-04-19T19:05:33.339Z,52.40
2023-04-19T19:08:03.339Z,53.00
2023-04-19T19:11:12.651Z,53.30
2023-04-19T19:13:26.287Z,53.50
2023-04-19T19:15:56.379Z,54.00
2023-04-19T19:21:09.505Z,55.00
2023-04-19T19:23:42.154Z,55.20
2023-04-19T19:26:14.952Z,55.50
2023-04-19T19:28:43.957Z,55.60
2023-04-19T19:31:13.906Z,55.90
2023-04-19T19:33:42.389Z,56.10
2023-04-19T19:36:13.129Z,56.10
2023-04-19T19:38:41.856Z,56.20
2023-04-19T19:43:42.622Z,56.50
2023-04-19T19:46:12.145Z,56.90
2023-04-19T19:48:44.646Z,57.00
2023-04-19T19:51:47.570Z,57.20
2023-04-19T19:54:03.113Z,57.30
2023-04-19T19:56:32.457Z,57.50
2023-04-19T19:59:01.961Z,57.60
2023-04-19T20:01:32.191Z,58.00
2023-04-19T20:04:02.459Z,58.20
2023-04-19T20:09:05.625Z,58.70
2023-04-19T20:11:34.587Z,59.00
2023-04-19T20:14:02.991Z,59.40
2023-04-19T20:16:36.991Z,59.70
2023-04-19T20:19:35.790Z,60.10
2023-04-19T20:22:08.347Z,60.10
2023-04-19T20:24:38.070Z,60.60
2023-04-19T20:27:06.943Z,60.70
2023-04-19T20:29:35.788Z,60.80
2023-04-19T20:32:04.481Z,61.20
2023-04-19T20:34:33.256Z,61.70
2023-04-19T20:37:02.033Z,61.70
2023-04-19T20:39:35.598Z,62.10
2023-04-19T20:42:04.789Z,62.20
2023-04-19T20:44:34.376Z,62.20
2023-04-19T20:47:08.589Z,62.20
2023-04-19T20:49:41.158Z,62.60
2023-04-19T20:52:10.767Z,62.60
2023-04-19T20:54:41.964Z,62.70
2023-04-19T20:57:11.504Z,63.10
2023-04-19T20:59:40.562Z,63.30
2023-04-19T21:02:10.243Z,63.80
2023-04-19T21:04:39.076Z,64.20
2023-04-19T21:07:07.470Z,64.50
2023-04-19T21:09:37.497Z,64.40
2023-04-19T21:12:23.705Z,64.60
2023-04-19T21:14:54.419Z,65.00
2023-04-19T21:17:23.272Z,64.90
2023-04-19T21:19:52.044Z,65.10
2023-04-19T21:22:21.079Z,65.50
2023-04-19T21:24:49.817Z,65.70
2023-04-19T21:27:18.907Z,65.80
2023-04-19T21:29:48.787Z,66.00
2023-04-19T21:32:18.670Z,66.20
2023-04-19T21:34:48.621Z,66.10
2023-04-19T21:37:18.641Z,66.30
2023-04-19T21:39:52.224Z,66.40
2023-04-19T21:42:21.299Z,66.80
2023-04-19T21:47:43.374Z,67.30
2023-04-19T21:50:19.734Z,67.50
2023-04-19T21:52:48.267Z,67.50
2023-04-19T21:55:18.826Z,67.60
2023-04-19T21:57:47.914Z,67.70
2023-04-19T22:00:18.517Z,67.70
2023-04-19T22:02:52.292Z,67.80
2023-04-19T22:05:20.997Z,68.20
2023-04-19T22:07:57.886Z,68.50
2023-04-19T22:10:42.696Z,68.60
2023-04-19T22:13:18.562Z,68.90
2023-04-19T22:18:43.452Z,69.50
2023-04-19T22:21:17.229Z,70.00
2023-04-19T22:23:56.060Z,70.10
2023-04-19T22:26:28.436Z,70.10
2023-04-19T22:29:04.865Z,71.10
2023-04-19T22:34:27.536Z,72.00
2023-04-19T22:39:52.639Z,73.00
2023-04-19T22:42:30.202Z,73.60
2023-04-19T22:44:59.435Z,73.20
2023-04-19T22:47:49.440Z,73.10
2023-04-19T22:53:08.551Z,73.80
2023-04-19T23:01:28.550Z,73.80
2023-04-19T23:03:58.925Z,73.90
2023-04-19T23:06:30.654Z,74.00
2023-04-19T23:09:01.892Z,74.10
2023-04-19T23:11:36.706Z,74.10
2023-04-19T23:17:02.452Z,73.80
2023-04-19T23:19:49.483Z,73.70
2023-04-19T23:22:36.150Z,73.70
2023-04-19T23:25:29.705Z,73.70
2023-04-19T23:28:00.664Z,73.60
2023-04-19T23:33:47.209Z,73.80
2023-04-19T23:36:45.706Z,73.90
2023-04-19T23:42:30.490Z,74.00
2023-04-19T23:45:19.989Z,74.10
2023-04-19T23:51:37.124Z,74.40
2023-04-19T23:54:08.305Z,74.50
2023-04-19T23:56:36.855Z,74.60
2023-04-19T23:59:11.056Z,74.70
